ミラノ/マルペンサ の空港の天気 - METARとTAF

ミラノ・マルペンサ国際空港 ( LIMC / MXP ) - イタリア ミラノ
飛行場実況気象(Metar)
観測時間03/28 23:20 CEST (03/28 21:20 UTC)
風向・風速北北東 2m/s
視程10km以上
天気現象
なし
気温9℃
湿度71%
気圧1024hPa
METARLIMC 282120Z 03003KT CAVOK 09/04 Q1024 NOSIG
過去の天気等 Google飛行場航空写真 Wunderground天気予報

過去48時間のMETAR

飛行場予報(TAF)
発表時間: 3/28 19:00 CEST (3/28 17:00 UTC)
予報対象時間: 28日20時 CEST ~ 30日2時 CEST
風向・風速不定 3m/s
視程10km以上
なし
TAF LIMC 281700Z 2818/2924 VRB05KT CAVOK